sensor_id;sensor_type;location;lat;lon;timestamp;P1;durP1;ratioP1;P2;durP2;ratioP2
29384;SDS011;16367;48.736;9.218;2022-09-01T00:00:38;42.05;;;34.78;;
29384;SDS011;16367;48.736;9.218;2022-09-01T00:02:42;39.38;;;34.88;;
29384;SDS011;16367;48.736;9.218;2022-09-01T00:04:45;38.97;;;34.75;;
29384;SDS011;16367;48.736;9.218;2022-09-01T00:06:49;40.40;;;36.00;;
29384;SDS011;16367;48.736;9.218;2022-09-01T00:08:56;39.58;;;35.05;;
29384;SDS011;16367;48.736;9.218;2022-09-01T00:11:00;39.42;;;35.28;;
29384;SDS011;16367;48.736;9.218;2022-09-01T00:13:03;38.50;;;34.50;;
29384;SDS011;16367;48.736;9.218;2022-09-01T00:15:08;41.90;;;37.20;;
29384;SDS011;16367;48.736;9.218;2022-09-01T00:17:11;40.25;;;36.05;;
29384;SDS011;16367;48.736;9.218;2022-09-01T00:19:14;42.10;;;36.53;;
29384;SDS011;16367;48.736;9.218;2022-09-01T00:21:17;41.65;;;36.80;;
29384;SDS011;16367;48.736;9.218;2022-09-01T00:23:24;42.47;;;36.53;;
29384;SDS011;16367;48.736;9.218;2022-09-01T00:25:27;41.38;;;35.50;;
29384;SDS011;16367;48.736;9.218;2022-09-01T00:27:30;39.80;;;35.33;;
29384;SDS011;16367;48.736;9.218;2022-09-01T00:29:33;39.67;;;35.42;;
29384;SDS011;16367;48.736;9.218;2022-09-01T00:31:36;39.67;;;35.37;;
29384;SDS011;16367;48.736;9.218;2022-09-01T00:33:39;40.90;;;35.83;;
29384;SDS011;16367;48.736;9.218;2022-09-01T00:35:42;39.03;;;34.80;;
29384;SDS011;16367;48.736;9.218;2022-09-01T00:37:45;38.60;;;34.40;;
29384;SDS011;16367;48.736;9.218;2022-09-01T00:39:49;40.88;;;33.60;;
29384;SDS011;16367;48.736;9.218;2022-09-01T00:41:52;41.28;;;35.30;;
29384;SDS011;16367;48.736;9.218;2022-09-01T00:43:55;37.65;;;33.72;;
29384;SDS011;16367;48.736;9.218;2022-09-01T00:46:00;36.72;;;31.73;;
29384;SDS011;16367;48.736;9.218;2022-09-01T00:48:03;36.28;;;32.00;;
29384;SDS011;16367;48.736;9.218;2022-09-01T00:50:07;35.85;;;29.80;;
29384;SDS011;16367;48.736;9.218;2022-09-01T00:52:12;33.15;;;29.55;;
29384;SDS011;16367;48.736;9.218;2022-09-01T00:54:18;41.35;;;32.15;;
29384;SDS011;16367;48.736;9.218;2022-09-01T00:56:24;34.60;;;30.20;;
29384;SDS011;16367;48.736;9.218;2022-09-01T00:58:27;36.45;;;32.53;;
29384;SDS011;16367;48.736;9.218;2022-09-01T01:00:32;36.15;;;30.13;;
29384;SDS011;16367;48.736;9.218;2022-09-01T01:02:42;35.28;;;31.48;;
29384;SDS011;16367;48.736;9.218;2022-09-01T01:04:46;33.30;;;29.73;;
29384;SDS011;16367;48.736;9.218;2022-09-01T01:06:50;38.47;;;32.25;;
29384;SDS011;16367;48.736;9.218;2022-09-01T01:08:59;36.83;;;31.48;;
29384;SDS011;16367;48.736;9.218;2022-09-01T01:11:03;33.20;;;29.60;;
29384;SDS011;16367;48.736;9.218;2022-09-01T01:13:10;33.85;;;29.60;;
29384;SDS011;16367;48.736;9.218;2022-09-01T01:15:15;33.47;;;28.67;;
29384;SDS011;16367;48.736;9.218;2022-09-01T01:17:19;34.55;;;30.85;;
29384;SDS011;16367;48.736;9.218;2022-09-01T01:19:25;35.40;;;31.30;;
29384;SDS011;16367;48.736;9.218;2022-09-01T01:21:53;35.95;;;29.85;;
29384;SDS011;16367;48.736;9.218;2022-09-01T01:24:20;34.97;;;31.25;;
29384;SDS011;16367;48.736;9.218;2022-09-01T01:26:25;35.08;;;29.15;;
29384;SDS011;16367;48.736;9.218;2022-09-01T01:28:29;36.72;;;31.70;;
29384;SDS011;16367;48.736;9.218;2022-09-01T01:30:32;33.25;;;29.65;;
29384;SDS011;16367;48.736;9.218;2022-09-01T01:32:35;34.97;;;29.60;;
29384;SDS011;16367;48.736;9.218;2022-09-01T01:34:40;36.00;;;31.30;;
29384;SDS011;16367;48.736;9.218;2022-09-01T01:36:48;33.78;;;30.08;;
29384;SDS011;16367;48.736;9.218;2022-09-01T01:38:52;35.90;;;30.77;;
29384;SDS011;16367;48.736;9.218;2022-09-01T01:40:57;34.80;;;31.00;;
29384;SDS011;16367;48.736;9.218;2022-09-01T01:43:01;36.95;;;31.90;;
29384;SDS011;16367;48.736;9.218;2022-09-01T01:45:06;36.97;;;32.67;;
29384;SDS011;16367;48.736;9.218;2022-09-01T01:47:12;34.85;;;31.17;;
29384;SDS011;16367;48.736;9.218;2022-09-01T01:49:19;37.42;;;30.30;;
29384;SDS011;16367;48.736;9.218;2022-09-01T01:51:23;35.42;;;31.67;;
29384;SDS011;16367;48.736;9.218;2022-09-01T01:53:29;36.30;;;31.27;;
29384;SDS011;16367;48.736;9.218;2022-09-01T01:55:33;33.55;;;30.02;;
29384;SDS011;16367;48.736;9.218;2022-09-01T01:57:38;35.10;;;31.30;;
29384;SDS011;16367;48.736;9.218;2022-09-01T01:59:49;34.80;;;30.90;;
29384;SDS011;16367;48.736;9.218;2022-09-01T02:01:52;34.38;;;30.17;;
29384;SDS011;16367;48.736;9.218;2022-09-01T02:03:55;33.95;;;30.25;;
29384;SDS011;16367;48.736;9.218;2022-09-01T02:06:00;35.50;;;30.58;;
29384;SDS011;16367;48.736;9.218;2022-09-01T02:08:09;35.65;;;31.90;;
29384;SDS011;16367;48.736;9.218;2022-09-01T02:10:13;35.90;;;31.52;;
29384;SDS011;16367;48.736;9.218;2022-09-01T02:12:15;35.83;;;31.98;;
29384;SDS011;16367;48.736;9.218;2022-09-01T02:14:21;37.65;;;31.85;;
29384;SDS011;16367;48.736;9.218;2022-09-01T02:16:25;35.35;;;30.65;;
29384;SDS011;16367;48.736;9.218;2022-09-01T02:18:31;35.75;;;32.00;;
29384;SDS011;16367;48.736;9.218;2022-09-01T02:20:36;36.10;;;31.00;;
29384;SDS011;16367;48.736;9.218;2022-09-01T02:22:39;38.22;;;33.22;;
29384;SDS011;16367;48.736;9.218;2022-09-01T02:24:44;39.05;;;33.25;;
29384;SDS011;16367;48.736;9.218;2022-09-01T02:26:49;36.72;;;32.45;;
29384;SDS011;16367;48.736;9.218;2022-09-01T02:28:52;40.50;;;34.85;;
29384;SDS011;16367;48.736;9.218;2022-09-01T02:30:57;41.85;;;34.70;;
29384;SDS011;16367;48.736;9.218;2022-09-01T02:33:04;41.60;;;35.05;;
29384;SDS011;16367;48.736;9.218;2022-09-01T02:35:07;40.75;;;34.83;;
29384;SDS011;16367;48.736;9.218;2022-09-01T02:37:11;38.38;;;34.08;;
29384;SDS011;16367;48.736;9.218;2022-09-01T02:39:14;38.88;;;33.80;;
29384;SDS011;16367;48.736;9.218;2022-09-01T02:41:19;42.53;;;35.80;;
29384;SDS011;16367;48.736;9.218;2022-09-01T02:43:24;43.53;;;34.15;;
29384;SDS011;16367;48.736;9.218;2022-09-01T02:45:28;43.45;;;36.17;;
29384;SDS011;16367;48.736;9.218;2022-09-01T02:47:32;39.78;;;35.40;;
29384;SDS011;16367;48.736;9.218;2022-09-01T02:49:37;41.63;;;34.45;;
29384;SDS011;16367;48.736;9.218;2022-09-01T02:51:43;43.60;;;35.53;;
29384;SDS011;16367;48.736;9.218;2022-09-01T02:53:48;39.50;;;33.70;;
29384;SDS011;16367;48.736;9.218;2022-09-01T02:55:53;41.50;;;36.15;;
29384;SDS011;16367;48.736;9.218;2022-09-01T02:57:59;46.30;;;36.85;;
29384;SDS011;16367;48.736;9.218;2022-09-01T03:00:03;45.17;;;38.63;;
29384;SDS011;16367;48.736;9.218;2022-09-01T03:02:20;49.17;;;37.95;;
29384;SDS011;16367;48.736;9.218;2022-09-01T03:04:25;46.85;;;37.88;;
29384;SDS011;16367;48.736;9.218;2022-09-01T03:06:35;45.88;;;37.70;;
29384;SDS011;16367;48.736;9.218;2022-09-01T03:08:39;49.00;;;38.75;;
29384;SDS011;16367;48.736;9.218;2022-09-01T03:10:43;53.78;;;39.22;;
29384;SDS011;16367;48.736;9.218;2022-09-01T03:12:47;47.72;;;37.30;;
29384;SDS011;16367;48.736;9.218;2022-09-01T03:14:50;46.42;;;37.22;;
29384;SDS011;16367;48.736;9.218;2022-09-01T03:16:52;47.42;;;38.92;;
29384;SDS011;16367;48.736;9.218;2022-09-01T03:18:55;48.85;;;38.83;;
29384;SDS011;16367;48.736;9.218;2022-09-01T03:21:00;49.72;;;37.92;;
29384;SDS011;16367;48.736;9.218;2022-09-01T03:23:04;47.45;;;38.35;;
29384;SDS011;16367;48.736;9.218;2022-09-01T03:25:09;46.70;;;36.92;;
29384;SDS011;16367;48.736;9.218;2022-09-01T03:27:11;52.40;;;40.40;;
29384;SDS011;16367;48.736;9.218;2022-09-01T03:29:14;49.28;;;38.83;;
29384;SDS011;16367;48.736;9.218;2022-09-01T03:31:17;44.67;;;37.28;;
29384;SDS011;16367;48.736;9.218;2022-09-01T03:33:21;44.67;;;36.28;;
29384;SDS011;16367;48.736;9.218;2022-09-01T03:35:26;43.78;;;35.47;;
29384;SDS011;16367;48.736;9.218;2022-09-01T03:37:33;44.75;;;37.25;;
29384;SDS011;16367;48.736;9.218;2022-09-01T03:39:37;49.60;;;37.40;;
29384;SDS011;16367;48.736;9.218;2022-09-01T03:41:40;45.88;;;36.55;;
29384;SDS011;16367;48.736;9.218;2022-09-01T03:43:43;46.78;;;35.55;;
29384;SDS011;16367;48.736;9.218;2022-09-01T03:45:48;45.85;;;36.55;;
29384;SDS011;16367;48.736;9.218;2022-09-01T03:47:51;47.72;;;36.30;;
29384;SDS011;16367;48.736;9.218;2022-09-01T03:49:54;43.78;;;36.95;;
29384;SDS011;16367;48.736;9.218;2022-09-01T03:51:57;45.08;;;35.13;;
29384;SDS011;16367;48.736;9.218;2022-09-01T03:54:02;46.03;;;35.47;;
29384;SDS011;16367;48.736;9.218;2022-09-01T03:56:06;46.65;;;36.95;;
29384;SDS011;16367;48.736;9.218;2022-09-01T03:58:09;49.45;;;36.92;;
29384;SDS011;16367;48.736;9.218;2022-09-01T04:00:16;46.92;;;37.10;;
29384;SDS011;16367;48.736;9.218;2022-09-01T04:02:23;43.88;;;34.88;;
29384;SDS011;16367;48.736;9.218;2022-09-01T04:04:30;42.75;;;34.17;;
29384;SDS011;16367;48.736;9.218;2022-09-01T04:06:33;44.70;;;36.05;;
29384;SDS011;16367;48.736;9.218;2022-09-01T04:08:38;47.83;;;36.22;;
29384;SDS011;16367;48.736;9.218;2022-09-01T04:10:43;45.58;;;35.13;;
29384;SDS011;16367;48.736;9.218;2022-09-01T04:12:54;46.55;;;36.67;;
29384;SDS011;16367;48.736;9.218;2022-09-01T04:14:59;46.60;;;37.25;;
29384;SDS011;16367;48.736;9.218;2022-09-01T04:17:02;47.30;;;37.53;;
29384;SDS011;16367;48.736;9.218;2022-09-01T04:19:23;43.90;;;35.72;;
29384;SDS011;16367;48.736;9.218;2022-09-01T04:21:27;46.63;;;37.35;;
29384;SDS011;16367;48.736;9.218;2022-09-01T04:23:32;45.75;;;37.10;;
29384;SDS011;16367;48.736;9.218;2022-09-01T04:25:37;46.67;;;36.90;;
29384;SDS011;16367;48.736;9.218;2022-09-01T04:27:43;47.78;;;37.13;;
29384;SDS011;16367;48.736;9.218;2022-09-01T04:29:47;48.72;;;37.67;;
29384;SDS011;16367;48.736;9.218;2022-09-01T04:31:50;47.95;;;36.95;;
29384;SDS011;16367;48.736;9.218;2022-09-01T04:33:53;42.55;;;35.55;;
29384;SDS011;16367;48.736;9.218;2022-09-01T04:35:56;46.75;;;35.67;;
29384;SDS011;16367;48.736;9.218;2022-09-01T04:38:00;44.38;;;34.58;;
29384;SDS011;16367;48.736;9.218;2022-09-01T04:40:04;44.05;;;35.03;;
29384;SDS011;16367;48.736;9.218;2022-09-01T04:42:07;45.45;;;35.20;;
29384;SDS011;16367;48.736;9.218;2022-09-01T04:44:12;41.75;;;34.00;;
29384;SDS011;16367;48.736;9.218;2022-09-01T04:46:19;43.50;;;32.75;;
29384;SDS011;16367;48.736;9.218;2022-09-01T04:48:22;40.85;;;33.05;;
29384;SDS011;16367;48.736;9.218;2022-09-01T04:50:27;41.55;;;33.67;;
29384;SDS011;16367;48.736;9.218;2022-09-01T04:52:31;39.53;;;32.45;;
29384;SDS011;16367;48.736;9.218;2022-09-01T04:54:33;40.45;;;32.78;;
29384;SDS011;16367;48.736;9.218;2022-09-01T04:56:38;38.10;;;31.60;;
29384;SDS011;16367;48.736;9.218;2022-09-01T04:58:43;38.92;;;32.67;;
29384;SDS011;16367;48.736;9.218;2022-09-01T05:00:49;36.45;;;31.52;;
29384;SDS011;16367;48.736;9.218;2022-09-01T05:02:54;34.13;;;30.23;;
29384;SDS011;16367;48.736;9.218;2022-09-01T05:05:04;32.35;;;28.05;;
29384;SDS011;16367;48.736;9.218;2022-09-01T05:07:10;31.02;;;27.30;;
29384;SDS011;16367;48.736;9.218;2022-09-01T05:09:15;31.80;;;26.45;;
29384;SDS011;16367;48.736;9.218;2022-09-01T05:11:18;29.00;;;25.38;;
29384;SDS011;16367;48.736;9.218;2022-09-01T05:13:21;29.35;;;26.25;;
29384;SDS011;16367;48.736;9.218;2022-09-01T05:15:24;29.45;;;26.00;;
29384;SDS011;16367;48.736;9.218;2022-09-01T05:17:28;26.25;;;23.38;;
29384;SDS011;16367;48.736;9.218;2022-09-01T05:19:31;28.77;;;25.67;;
29384;SDS011;16367;48.736;9.218;2022-09-01T05:21:36;27.92;;;24.92;;
29384;SDS011;16367;48.736;9.218;2022-09-01T05:23:39;27.27;;;23.30;;
29384;SDS011;16367;48.736;9.218;2022-09-01T05:25:42;30.38;;;25.35;;
29384;SDS011;16367;48.736;9.218;2022-09-01T05:27:46;28.23;;;25.17;;
29384;SDS011;16367;48.736;9.218;2022-09-01T05:29:50;28.23;;;25.15;;
29384;SDS011;16367;48.736;9.218;2022-09-01T05:31:54;27.30;;;24.30;;
29384;SDS011;16367;48.736;9.218;2022-09-01T05:33:59;32.05;;;28.00;;
29384;SDS011;16367;48.736;9.218;2022-09-01T05:36:03;29.33;;;25.27;;
29384;SDS011;16367;48.736;9.218;2022-09-01T05:38:08;27.55;;;24.65;;
29384;SDS011;16367;48.736;9.218;2022-09-01T05:40:13;30.15;;;25.73;;
29384;SDS011;16367;48.736;9.218;2022-09-01T05:42:16;28.35;;;25.27;;
29384;SDS011;16367;48.736;9.218;2022-09-01T05:44:21;26.80;;;23.90;;
29384;SDS011;16367;48.736;9.218;2022-09-01T05:46:24;27.25;;;24.45;;
29384;SDS011;16367;48.736;9.218;2022-09-01T05:48:28;30.05;;;25.50;;
29384;SDS011;16367;48.736;9.218;2022-09-01T05:50:33;29.23;;;26.13;;
29384;SDS011;16367;48.736;9.218;2022-09-01T05:52:38;35.38;;;28.50;;
29384;SDS011;16367;48.736;9.218;2022-09-01T05:54:44;34.53;;;28.58;;
29384;SDS011;16367;48.736;9.218;2022-09-01T05:56:50;32.78;;;28.90;;
29384;SDS011;16367;48.736;9.218;2022-09-01T05:58:54;33.10;;;29.50;;
29384;SDS011;16367;48.736;9.218;2022-09-01T06:01:20;35.85;;;28.98;;
29384;SDS011;16367;48.736;9.218;2022-09-01T06:03:26;33.90;;;29.40;;
29384;SDS011;16367;48.736;9.218;2022-09-01T06:05:39;31.92;;;28.20;;
29384;SDS011;16367;48.736;9.218;2022-09-01T06:07:42;35.00;;;28.92;;
29384;SDS011;16367;48.736;9.218;2022-09-01T06:09:47;35.95;;;28.35;;
29384;SDS011;16367;48.736;9.218;2022-09-01T06:11:50;35.58;;;28.60;;
29384;SDS011;16367;48.736;9.218;2022-09-01T06:13:55;32.47;;;27.57;;
29384;SDS011;16367;48.736;9.218;2022-09-01T06:15:58;30.42;;;27.13;;
29384;SDS011;16367;48.736;9.218;2022-09-01T06:18:02;28.13;;;24.88;;
29384;SDS011;16367;48.736;9.218;2022-09-01T06:20:06;30.40;;;26.00;;
29384;SDS011;16367;48.736;9.218;2022-09-01T06:22:12;31.30;;;24.95;;
29384;SDS011;16367;48.736;9.218;2022-09-01T06:24:15;27.43;;;24.60;;
29384;SDS011;16367;48.736;9.218;2022-09-01T06:26:18;26.67;;;23.87;;
29384;SDS011;16367;48.736;9.218;2022-09-01T06:28:24;25.37;;;22.63;;
29384;SDS011;16367;48.736;9.218;2022-09-01T06:30:26;25.77;;;23.00;;
29384;SDS011;16367;48.736;9.218;2022-09-01T06:32:30;27.70;;;23.70;;
29384;SDS011;16367;48.736;9.218;2022-09-01T06:34:34;24.23;;;21.63;;
29384;SDS011;16367;48.736;9.218;2022-09-01T06:36:38;24.13;;;21.53;;
29384;SDS011;16367;48.736;9.218;2022-09-01T06:38:44;26.03;;;23.30;;
29384;SDS011;16367;48.736;9.218;2022-09-01T06:40:47;25.07;;;22.27;;
29384;SDS011;16367;48.736;9.218;2022-09-01T06:42:55;24.37;;;21.87;;
29384;SDS011;16367;48.736;9.218;2022-09-01T06:45:00;24.07;;;21.57;;
29384;SDS011;16367;48.736;9.218;2022-09-01T06:47:03;25.53;;;22.57;;
29384;SDS011;16367;48.736;9.218;2022-09-01T06:49:06;25.73;;;21.80;;
29384;SDS011;16367;48.736;9.218;2022-09-01T06:51:12;24.63;;;22.13;;
29384;SDS011;16367;48.736;9.218;2022-09-01T06:53:20;22.50;;;20.10;;
29384;SDS011;16367;48.736;9.218;2022-09-01T06:55:40;22.40;;;19.77;;
29384;SDS011;16367;48.736;9.218;2022-09-01T06:57:44;23.57;;;20.67;;
29384;SDS011;16367;48.736;9.218;2022-09-01T07:00:12;22.93;;;20.43;;
29384;SDS011;16367;48.736;9.218;2022-09-01T07:02:19;22.77;;;20.37;;
29384;SDS011;16367;48.736;9.218;2022-09-01T07:04:27;21.07;;;18.87;;
29384;SDS011;16367;48.736;9.218;2022-09-01T07:06:32;21.63;;;19.00;;
29384;SDS011;16367;48.736;9.218;2022-09-01T07:08:55;20.03;;;18.03;;
29384;SDS011;16367;48.736;9.218;2022-09-01T07:11:24;19.77;;;17.70;;
29384;SDS011;16367;48.736;9.218;2022-09-01T07:13:49;18.07;;;16.17;;
29384;SDS011;16367;48.736;9.218;2022-09-01T07:16:15;20.47;;;16.17;;
29384;SDS011;16367;48.736;9.218;2022-09-01T07:18:43;16.77;;;14.93;;
29384;SDS011;16367;48.736;9.218;2022-09-01T07:20:59;15.30;;;13.80;;
29384;SDS011;16367;48.736;9.218;2022-09-01T07:23:22;15.87;;;14.30;;
29384;SDS011;16367;48.736;9.218;2022-09-01T07:25:26;16.80;;;15.20;;
29384;SDS011;16367;48.736;9.218;2022-09-01T07:27:50;16.90;;;15.30;;
29384;SDS011;16367;48.736;9.218;2022-09-01T07:29:55;16.70;;;15.10;;
29384;SDS011;16367;48.736;9.218;2022-09-01T07:31:58;15.37;;;13.97;;
29384;SDS011;16367;48.736;9.218;2022-09-01T07:34:21;17.30;;;15.40;;
29384;SDS011;16367;48.736;9.218;2022-09-01T07:36:42;17.37;;;15.67;;
29384;SDS011;16367;48.736;9.218;2022-09-01T07:39:05;16.73;;;15.07;;
29384;SDS011;16367;48.736;9.218;2022-09-01T07:41:28;16.23;;;14.73;;
29384;SDS011;16367;48.736;9.218;2022-09-01T07:43:54;17.17;;;15.47;;
29384;SDS011;16367;48.736;9.218;2022-09-01T07:45:57;18.20;;;16.30;;
29384;SDS011;16367;48.736;9.218;2022-09-01T07:48:21;19.67;;;17.77;;
29384;SDS011;16367;48.736;9.218;2022-09-01T07:50:46;21.17;;;19.17;;
29384;SDS011;16367;48.736;9.218;2022-09-01T07:53:10;19.03;;;17.03;;
29384;SDS011;16367;48.736;9.218;2022-09-01T07:55:13;21.03;;;18.93;;
29384;SDS011;16367;48.736;9.218;2022-09-01T07:57:17;18.60;;;16.43;;
29384;SDS011;16367;48.736;9.218;2022-09-01T07:59:23;18.53;;;16.63;;
29384;SDS011;16367;48.736;9.218;2022-09-01T08:01:29;19.10;;;17.20;;
29384;SDS011;16367;48.736;9.218;2022-09-01T08:03:32;18.87;;;17.00;;
29384;SDS011;16367;48.736;9.218;2022-09-01T08:05:35;18.43;;;16.60;;
29384;SDS011;16367;48.736;9.218;2022-09-01T08:07:37;19.23;;;17.27;;
29384;SDS011;16367;48.736;9.218;2022-09-01T08:09:56;19.87;;;17.87;;
29384;SDS011;16367;48.736;9.218;2022-09-01T08:12:02;18.60;;;16.70;;
29384;SDS011;16367;48.736;9.218;2022-09-01T08:14:07;18.97;;;16.97;;
29384;SDS011;16367;48.736;9.218;2022-09-01T08:16:12;17.10;;;15.50;;
29384;SDS011;16367;48.736;9.218;2022-09-01T08:18:18;18.50;;;16.60;;
29384;SDS011;16367;48.736;9.218;2022-09-01T08:20:21;18.17;;;16.40;;
29384;SDS011;16367;48.736;9.218;2022-09-01T08:22:24;18.20;;;16.40;;
29384;SDS011;16367;48.736;9.218;2022-09-01T08:24:27;17.57;;;15.70;;
29384;SDS011;16367;48.736;9.218;2022-09-01T08:26:29;16.33;;;14.73;;
29384;SDS011;16367;48.736;9.218;2022-09-01T08:28:32;17.90;;;15.97;;
29384;SDS011;16367;48.736;9.218;2022-09-01T08:30:36;17.03;;;15.30;;
29384;SDS011;16367;48.736;9.218;2022-09-01T08:32:42;17.63;;;15.90;;
29384;SDS011;16367;48.736;9.218;2022-09-01T08:34:44;16.70;;;15.00;;
29384;SDS011;16367;48.736;9.218;2022-09-01T08:36:47;17.20;;;15.60;;
29384;SDS011;16367;48.736;9.218;2022-09-01T08:38:50;17.87;;;15.50;;
29384;SDS011;16367;48.736;9.218;2022-09-01T08:40:53;16.37;;;14.87;;
29384;SDS011;16367;48.736;9.218;2022-09-01T08:43:01;16.97;;;15.30;;
29384;SDS011;16367;48.736;9.218;2022-09-01T08:45:19;15.70;;;14.20;;
29384;SDS011;16367;48.736;9.218;2022-09-01T08:47:24;14.60;;;13.27;;
29384;SDS011;16367;48.736;9.218;2022-09-01T08:49:37;15.43;;;14.03;;
29384;SDS011;16367;48.736;9.218;2022-09-01T08:51:45;15.40;;;13.90;;
29384;SDS011;16367;48.736;9.218;2022-09-01T08:53:54;15.80;;;14.30;;
29384;SDS011;16367;48.736;9.218;2022-09-01T08:56:02;14.43;;;13.07;;
29384;SDS011;16367;48.736;9.218;2022-09-01T08:58:06;13.97;;;12.57;;
29384;SDS011;16367;48.736;9.218;2022-09-01T09:00:13;14.73;;;13.33;;
29384;SDS011;16367;48.736;9.218;2022-09-01T09:02:22;13.73;;;12.53;;
29384;SDS011;16367;48.736;9.218;2022-09-01T09:04:46;13.50;;;11.93;;
29384;SDS011;16367;48.736;9.218;2022-09-01T09:06:58;12.97;;;11.80;;
29384;SDS011;16367;48.736;9.218;2022-09-01T09:09:13;12.83;;;11.73;;
29384;SDS011;16367;48.736;9.218;2022-09-01T09:11:21;13.20;;;11.90;;
29384;SDS011;16367;48.736;9.218;2022-09-01T09:13:39;13.70;;;12.40;;
29384;SDS011;16367;48.736;9.218;2022-09-01T09:15:54;12.77;;;11.23;;
29384;SDS011;16367;48.736;9.218;2022-09-01T09:18:11;13.90;;;12.60;;
29384;SDS011;16367;48.736;9.218;2022-09-01T09:20:41;13.77;;;12.40;;
29384;SDS011;16367;48.736;9.218;2022-09-01T09:22:45;14.93;;;13.00;;
29384;SDS011;16367;48.736;9.218;2022-09-01T09:24:51;15.50;;;12.83;;
29384;SDS011;16367;48.736;9.218;2022-09-01T09:26:57;13.87;;;12.47;;
29384;SDS011;16367;48.736;9.218;2022-09-01T09:29:00;12.90;;;11.70;;
29384;SDS011;16367;48.736;9.218;2022-09-01T09:33:32;11.50;;;10.43;;
29384;SDS011;16367;48.736;9.218;2022-09-01T09:36:08;12.70;;;11.60;;
29384;SDS011;16367;48.736;9.218;2022-09-01T09:38:20;11.00;;;9.90;;
29384;SDS011;16367;48.736;9.218;2022-09-01T09:40:29;12.03;;;10.93;;
29384;SDS011;16367;48.736;9.218;2022-09-01T09:42:59;11.90;;;10.73;;
29384;SDS011;16367;48.736;9.218;2022-09-01T09:45:05;12.07;;;10.97;;
29384;SDS011;16367;48.736;9.218;2022-09-01T09:47:33;11.97;;;10.83;;
29384;SDS011;16367;48.736;9.218;2022-09-01T09:49:44;11.80;;;10.70;;
29384;SDS011;16367;48.736;9.218;2022-09-01T09:51:51;10.50;;;9.50;;
29384;SDS011;16367;48.736;9.218;2022-09-01T09:53:59;11.03;;;9.97;;
29384;SDS011;16367;48.736;9.218;2022-09-01T09:56:15;10.60;;;9.73;;
29384;SDS011;16367;48.736;9.218;2022-09-01T09:58:20;10.03;;;9.23;;
29384;SDS011;16367;48.736;9.218;2022-09-01T10:00:27;9.27;;;8.57;;
29384;SDS011;16367;48.736;9.218;2022-09-01T10:02:33;8.90;;;8.20;;
29384;SDS011;16367;48.736;9.218;2022-09-01T10:04:38;8.83;;;8.03;;
29384;SDS011;16367;48.736;9.218;2022-09-01T10:06:41;8.47;;;7.77;;
29384;SDS011;16367;48.736;9.218;2022-09-01T10:08:48;8.60;;;7.80;;
29384;SDS011;16367;48.736;9.218;2022-09-01T10:10:51;7.80;;;6.90;;
29384;SDS011;16367;48.736;9.218;2022-09-01T10:12:58;7.10;;;6.50;;
29384;SDS011;16367;48.736;9.218;2022-09-01T10:15:03;6.47;;;5.90;;
29384;SDS011;16367;48.736;9.218;2022-09-01T10:17:15;7.53;;;6.70;;
29384;SDS011;16367;48.736;9.218;2022-09-01T10:19:20;7.37;;;6.70;;
29384;SDS011;16367;48.736;9.218;2022-09-01T10:21:25;6.03;;;5.60;;
29384;SDS011;16367;48.736;9.218;2022-09-01T10:23:33;7.20;;;6.60;;
29384;SDS011;16367;48.736;9.218;2022-09-01T10:25:41;7.23;;;6.63;;
29384;SDS011;16367;48.736;9.218;2022-09-01T10:27:50;7.70;;;7.00;;
29384;SDS011;16367;48.736;9.218;2022-09-01T10:30:03;7.60;;;7.00;;
29384;SDS011;16367;48.736;9.218;2022-09-01T10:32:15;7.60;;;7.00;;
29384;SDS011;16367;48.736;9.218;2022-09-01T10:34:37;7.77;;;7.07;;
29384;SDS011;16367;48.736;9.218;2022-09-01T10:36:42;7.63;;;7.03;;
29384;SDS011;16367;48.736;9.218;2022-09-01T10:38:54;7.60;;;6.97;;
29384;SDS011;16367;48.736;9.218;2022-09-01T10:41:06;7.70;;;7.10;;
29384;SDS011;16367;48.736;9.218;2022-09-01T10:45:41;7.40;;;6.83;;
29384;SDS011;16367;48.736;9.218;2022-09-01T10:47:44;8.40;;;7.60;;
29384;SDS011;16367;48.736;9.218;2022-09-01T10:49:57;7.80;;;7.20;;
29384;SDS011;16367;48.736;9.218;2022-09-01T10:52:10;7.50;;;6.90;;
29384;SDS011;16367;48.736;9.218;2022-09-01T10:56:57;7.50;;;6.80;;
29384;SDS011;16367;48.736;9.218;2022-09-01T10:59:10;7.37;;;6.67;;
29384;SDS011;16367;48.736;9.218;2022-09-01T11:02:03;6.30;;;5.80;;
29384;SDS011;16367;48.736;9.218;2022-09-01T11:07:28;6.60;;;6.00;;
29384;SDS011;16367;48.736;9.218;2022-09-01T11:10:05;7.20;;;6.50;;
29384;SDS011;16367;48.736;9.218;2022-09-01T11:12:42;6.00;;;5.50;;
29384;SDS011;16367;48.736;9.218;2022-09-01T11:15:00;6.37;;;5.67;;
29384;SDS011;16367;48.736;9.218;2022-09-01T11:17:11;6.73;;;6.17;;
29384;SDS011;16367;48.736;9.218;2022-09-01T11:19:28;6.60;;;6.10;;
29384;SDS011;16367;48.736;9.218;2022-09-01T11:21:44;7.10;;;6.43;;
29384;SDS011;16367;48.736;9.218;2022-09-01T11:23:48;6.77;;;6.17;;
29384;SDS011;16367;48.736;9.218;2022-09-01T11:25:53;6.73;;;6.23;;
29384;SDS011;16367;48.736;9.218;2022-09-01T11:30:46;7.10;;;6.50;;
29384;SDS011;16367;48.736;9.218;2022-09-01T11:32:56;7.83;;;7.13;;
29384;SDS011;16367;48.736;9.218;2022-09-01T11:35:05;7.27;;;6.67;;
29384;SDS011;16367;48.736;9.218;2022-09-01T11:37:19;6.97;;;6.30;;
29384;SDS011;16367;48.736;9.218;2022-09-01T11:39:32;7.57;;;6.87;;
29384;SDS011;16367;48.736;9.218;2022-09-01T11:41:44;8.03;;;6.83;;
29384;SDS011;16367;48.736;9.218;2022-09-01T11:44:00;8.10;;;6.90;;
29384;SDS011;16367;48.736;9.218;2022-09-01T11:46:14;6.83;;;6.33;;
29384;SDS011;16367;48.736;9.218;2022-09-01T11:48:23;6.87;;;6.27;;
29384;SDS011;16367;48.736;9.218;2022-09-01T11:50:28;7.07;;;6.50;;
29384;SDS011;16367;48.736;9.218;2022-09-01T11:52:35;7.40;;;6.77;;
29384;SDS011;16367;48.736;9.218;2022-09-01T11:54:42;7.80;;;7.10;;
29384;SDS011;16367;48.736;9.218;2022-09-01T11:56:46;7.30;;;6.47;;
29384;SDS011;16367;48.736;9.218;2022-09-01T11:58:49;6.83;;;6.33;;
29384;SDS011;16367;48.736;9.218;2022-09-01T12:00:53;8.10;;;6.40;;
29384;SDS011;16367;48.736;9.218;2022-09-01T12:02:59;7.53;;;6.80;;
29384;SDS011;16367;48.736;9.218;2022-09-01T12:05:03;6.20;;;5.70;;
29384;SDS011;16367;48.736;9.218;2022-09-01T12:07:31;6.90;;;6.30;;
29384;SDS011;16367;48.736;9.218;2022-09-01T12:09:41;5.73;;;5.23;;
29384;SDS011;16367;48.736;9.218;2022-09-01T12:11:45;6.03;;;5.43;;
29384;SDS011;16367;48.736;9.218;2022-09-01T12:13:54;6.47;;;5.10;;
29384;SDS011;16367;48.736;9.218;2022-09-01T12:15:59;6.70;;;6.20;;
29384;SDS011;16367;48.736;9.218;2022-09-01T12:18:22;6.10;;;5.50;;
29384;SDS011;16367;48.736;9.218;2022-09-01T12:20:28;6.30;;;5.73;;
29384;SDS011;16367;48.736;9.218;2022-09-01T12:22:32;6.40;;;5.90;;
29384;SDS011;16367;48.736;9.218;2022-09-01T12:24:35;6.77;;;6.27;;
29384;SDS011;16367;48.736;9.218;2022-09-01T12:26:38;6.80;;;6.30;;
29384;SDS011;16367;48.736;9.218;2022-09-01T12:28:42;7.00;;;6.40;;
29384;SDS011;16367;48.736;9.218;2022-09-01T12:30:46;7.20;;;6.60;;
29384;SDS011;16367;48.736;9.218;2022-09-01T12:32:50;6.83;;;6.30;;
29384;SDS011;16367;48.736;9.218;2022-09-01T12:35:16;6.80;;;6.30;;
29384;SDS011;16367;48.736;9.218;2022-09-01T12:37:23;7.47;;;6.87;;
29384;SDS011;16367;48.736;9.218;2022-09-01T12:39:31;7.20;;;6.70;;
29384;SDS011;16367;48.736;9.218;2022-09-01T12:41:36;7.27;;;6.67;;
29384;SDS011;16367;48.736;9.218;2022-09-01T12:43:40;6.83;;;6.33;;